Apex, North Carolina
Current Conditions -  °F | °C
As of 10:51 AM on Friday 21 Nov 2014 (Local Time) from KRDU Reporting Station
Few Clouds Few Clouds  
Wind Chill: 41°   Ceiling: Unl
Heat Index: 45°   Visibility: 10mi
Dew Point: 12°   Wind: 7mph
Humidity: 26%   Direction: 20°NNE
Pressure: 30.44"   Gusts: NA
Location:  35.73°N, 78.84°W
Report Text: KRDU 211551Z 02006KT 10SM FEW250 07/M11 A3044 RMK AO2 SLP311 T00721111 $
Loading
Personal Weather Stations






























Interactive Weather Map New forecast layout! Learn more

10-Day Weather Forecast

Advertisements
Track Severe Weather on mobile